Time,TemperatureF,DewpointF,PressureIn,WindDirection,WindDirectionDegrees,WindSpeedMPH,WindSpeedGustMPH,Humidity,HourlyPrecipIn,Conditions,Clouds,dailyrainin,SoftwareType,DateUTC
2013-08-02 00:05:00,47.1,47.1,29.97,West,270,0.0,0.0,100,0.00,,,0.00,WSDL version 420,2013-08-01 14:05:00,
2013-08-02 00:14:00,47.2,47.2,29.97,SSW,203,0.0,0.0,100,0.00,,,0.00,WSDL version 420,2013-08-01 14:14:00,
2013-08-02 00:19:00,47.5,47.5,29.97,SE,138,0.0,0.0,100,0.00,,,0.00,WSDL version 420,2013-08-01 14:19:00,
2013-08-02 00:24:00,47.5,47.5,29.97,South,180,0.0,0.0,100,0.00,,,0.00,WSDL version 420,2013-08-01 14:24:00,
2013-08-02 00:29:00,47.5,47.5,29.97,South,180,0.0,0.0,100,0.00,,,0.00,WSDL version 420,2013-08-01 14:29:00,
2013-08-02 00:34:00,47.7,47.7,29.97,SSW,212,0.0,0.0,100,0.00,,,0.00,WSDL version 420,2013-08-01 14:34:00,
2013-08-02 00:39:00,47.5,47.5,29.97,SW,225,0.0,0.0,100,0.00,,,0.00,WSDL version 420,2013-08-01 14:39:00,
2013-08-02 00:48:00,47.7,47.7,29.97,SW,236,0.0,0.0,100,0.00,,,0.00,WSDL version 420,2013-08-01 14:48:00,
2013-08-02 00:53:00,47.4,47.4,29.97,WSW,248,0.0,0.0,100,0.00,,,0.00,WSDL version 420,2013-08-01 14:53:00,
2013-08-02 01:00:00,46.9,46.9,29.97,NW,315,0.0,0.0,100,0.00,,,0.00,WSDL version 420,2013-08-01 15:00:00,
2013-08-02 01:05:00,46.8,46.8,30.00,NW,315,0.0,0.0,100,0.00,,,0.00,WSDL version 420,2013-08-01 15:05:00,
2013-08-02 01:13:00,46.8,46.8,30.00,NW,315,0.0,0.0,100,0.00,,,0.00,WSDL version 420,2013-08-01 15:13:00,
2013-08-02 01:20:00,46.4,46.4,29.97,NW,315,0.0,0.0,100,0.00,,,0.00,WSDL version 420,2013-08-01 15:20:00,
2013-08-02 01:25:00,46.5,46.5,29.97,SSW,208,0.4,1.6,100,0.00,,,0.00,WSDL version 420,2013-08-01 15:25:00,
2013-08-02 01:34:00,46.4,46.4,29.97,SW,225,0.0,0.0,100,0.00,,,0.00,WSDL version 420,2013-08-01 15:34:00,
2013-08-02 01:39:00,46.4,46.4,29.97,SW,225,0.0,0.0,100,0.00,,,0.00,WSDL version 420,2013-08-01 15:39:00,
2013-08-02 01:44:00,46.2,46.2,29.97,SW,225,0.0,0.0,100,0.00,,,0.00,WSDL version 420,2013-08-01 15:44:00,
2013-08-02 01:49:00,46.2,46.2,29.94,SW,225,0.0,0.0,100,0.00,,,0.00,WSDL version 420,2013-08-01 15:49:00,
2013-08-02 01:54:00,46.0,46.0,29.94,SW,225,0.0,0.0,100,0.00,,,0.00,WSDL version 420,2013-08-01 15:54:00,
2013-08-02 02:01:00,45.5,45.5,29.94,SW,225,0.0,0.0,100,0.00,,,0.00,WSDL version 420,2013-08-01 16:01:00,
2013-08-02 02:08:00,45.5,45.5,29.94,SW,225,0.0,0.0,100,0.00,,,0.00,WSDL version 420,2013-08-01 16:08:00,
2013-08-02 02:13:00,45.5,45.5,29.94,SW,225,0.0,0.0,100,0.00,,,0.00,WSDL version 420,2013-08-01 16:13:00,
2013-08-02 02:21:00,45.6,45.6,29.94,SW,225,0.0,0.0,100,0.00,,,0.00,WSDL version 420,2013-08-01 16:21:00,
2013-08-02 02:26:00,45.9,45.9,29.94,SW,225,0.0,0.0,100,0.00,,,0.00,WSDL version 420,2013-08-01 16:26:00,
2013-08-02 02:35:00,45.9,45.9,29.94,SW,225,0.0,0.0,100,0.00,,,0.00,WSDL version 420,2013-08-01 16:35:00,
2013-08-02 02:40:00,46.0,46.0,29.94,SW,225,0.0,0.0,100,0.00,,,0.00,WSDL version 420,2013-08-01 16:40:00,
2013-08-02 02:45:00,46.0,46.0,29.94,SW,225,0.0,0.0,100,0.00,,,0.00,WSDL version 420,2013-08-01 16:45:00,
2013-08-02 02:50:00,46.0,46.0,29.94,SW,225,0.0,0.0,100,0.00,,,0.00,WSDL version 420,2013-08-01 16:50:00,
2013-08-02 02:59:00,45.5,45.5,29.94,SW,225,0.0,0.0,100,0.00,,,0.00,WSDL version 420,2013-08-01 16:59:00,
2013-08-02 03:08:00,45.3,45.3,29.94,SW,225,0.0,0.0,100,0.00,,,0.00,WSDL version 420,2013-08-01 17:08:00,
2013-08-02 03:13:00,45.3,45.3,29.94,SW,225,0.0,0.0,100,0.00,,,0.00,WSDL version 420,2013-08-01 17:13:00,
2013-08-02 03:20:00,45.5,45.5,29.91,SW,225,0.0,0.0,100,0.00,,,0.00,WSDL version 420,2013-08-01 17:20:00,
2013-08-02 03:25:00,46.1,46.1,29.91,SW,225,0.0,0.0,100,0.00,,,0.00,WSDL version 420,2013-08-01 17:25:00,
2013-08-02 03:30:00,46.6,46.6,29.91,SW,225,0.0,0.0,100,0.00,,,0.00,WSDL version 420,2013-08-01 17:30:00,
2013-08-02 03:35:00,46.8,46.8,29.91,SW,225,0.0,0.0,100,0.00,,,0.00,WSDL version 420,2013-08-01 17:35:00,
2013-08-02 03:45:00,46.8,46.8,29.91,South,180,0.0,0.0,100,0.00,,,0.00,WSDL version 420,2013-08-01 17:45:00,
2013-08-02 03:50:00,46.4,46.4,29.91,SW,225,0.0,0.0,100,0.00,,,0.00,WSDL version 420,2013-08-01 17:50:00,
2013-08-02 03:59:00,46.0,46.0,29.91,SW,225,0.0,0.0,100,0.00,,,0.00,WSDL version 420,2013-08-01 17:59:00,
2013-08-02 04:04:00,46.0,46.0,29.88,SW,225,0.0,0.0,100,0.00,,,0.00,WSDL version 420,2013-08-01 18:04:00,
2013-08-02 04:09:00,46.0,46.0,29.88,SW,225,0.0,0.0,100,0.00,,,0.00,WSDL version 420,2013-08-01 18:09:00,
2013-08-02 04:16:00,45.9,45.9,29.88,SW,225,0.0,0.0,100,0.00,,,0.00,WSDL version 420,2013-08-01 18:16:00,
2013-08-02 04:23:00,45.7,45.7,29.91,SW,225,0.0,0.0,100,0.00,,,0.00,WSDL version 420,2013-08-01 18:23:00,
2013-08-02 04:28:00,45.9,45.9,29.91,SW,225,0.0,0.0,100,0.00,,,0.00,WSDL version 420,2013-08-01 18:28:00,
2013-08-02 04:33:00,45.9,45.9,29.91,SW,225,0.0,0.0,100,0.00,,,0.00,WSDL version 420,2013-08-01 18:33:00,
2013-08-02 04:39:00,45.9,45.9,29.91,SW,225,0.0,0.0,100,0.00,,,0.00,WSDL version 420,2013-08-01 18:39:00,
2013-08-02 04:44:00,45.9,45.9,29.91,SW,225,0.0,0.0,100,0.00,,,0.00,WSDL version 420,2013-08-01 18:44:00,
2013-08-02 04:49:00,45.8,45.8,29.91,SW,225,0.0,0.0,100,0.00,,,0.00,WSDL version 420,2013-08-01 18:49:00,
2013-08-02 04:54:00,45.5,45.5,29.91,SW,225,0.0,0.0,100,0.00,,,0.00,WSDL version 420,2013-08-01 18:54:00,
2013-08-02 04:59:00,45.4,45.4,29.91,SW,225,0.0,0.0,100,0.00,,,0.00,WSDL version 420,2013-08-01 18:59:00,
2013-08-02 05:10:00,45.1,45.1,29.91,SW,225,0.0,0.0,100,0.00,,,0.00,WSDL version 420,2013-08-01 19:10:00,
2013-08-02 05:15:00,45.4,45.4,29.91,SW,225,0.0,0.0,100,0.00,,,0.00,WSDL version 420,2013-08-01 19:15:00,
2013-08-02 05:20:00,45.3,45.3,29.91,SW,225,0.0,0.0,100,0.00,,,0.00,WSDL version 420,2013-08-01 19:20:00,
2013-08-02 05:25:00,45.1,45.1,29.91,SW,225,0.0,0.0,100,0.00,,,0.00,WSDL version 420,2013-08-01 19:25:00,
2013-08-02 05:30:00,45.3,45.3,29.91,SW,225,0.0,0.0,100,0.00,,,0.00,WSDL version 420,2013-08-01 19:30:00,
2013-08-02 05:35:00,45.2,45.2,29.91,SW,225,0.0,0.0,100,0.00,,,0.00,WSDL version 420,2013-08-01 19:35:00,
2013-08-02 05:42:00,45.3,45.3,29.91,SW,225,0.0,0.0,100,0.00,,,0.00,WSDL version 420,2013-08-01 19:42:00,
2013-08-02 05:47:00,45.9,45.9,29.91,SW,225,0.0,0.0,100,0.00,,,0.00,WSDL version 420,2013-08-01 19:47:00,
2013-08-02 05:56:00,46.5,46.5,29.91,SW,225,0.0,0.0,100,0.00,,,0.00,WSDL version 420,2013-08-01 19:56:00,
2013-08-02 06:02:00,46.4,46.4,29.91,SW,225,0.0,0.0,100,0.00,,,0.00,WSDL version 420,2013-08-01 20:02:00,
2013-08-02 06:07:00,46.0,46.0,29.91,SW,225,0.0,0.0,100,0.00,,,0.00,WSDL version 420,2013-08-01 20:07:00,
2013-08-02 06:12:00,45.6,45.6,29.91,SW,225,0.0,0.0,100,-99.99,,,-99.99,WSDL version 420,2013-08-01 20:12:00,
2013-08-02 06:17:00,45.5,45.5,29.91,SW,225,0.0,0.0,100,0.00,,,0.00,WSDL version 420,2013-08-01 20:17:00,
2013-08-02 06:22:00,45.2,45.2,29.91,SW,225,0.0,0.0,100,0.00,,,0.00,WSDL version 420,2013-08-01 20:22:00,
2013-08-02 06:27:00,45.1,45.1,29.91,SW,225,0.0,0.0,100,0.00,,,0.00,WSDL version 420,2013-08-01 20:27:00,
2013-08-02 06:32:00,45.5,45.5,29.91,SW,225,0.0,0.0,100,0.00,,,0.00,WSDL version 420,2013-08-01 20:32:00,
2013-08-02 06:37:00,45.5,45.5,29.91,West,267,0.0,0.0,100,0.00,,,0.00,WSDL version 420,2013-08-01 20:37:00,
2013-08-02 06:42:00,45.1,45.1,29.91,West,270,0.0,0.0,100,0.00,,,0.00,WSDL version 420,2013-08-01 20:42:00,
2013-08-02 06:47:00,45.2,45.2,29.94,West,270,0.0,0.0,100,0.00,,,0.00,WSDL version 420,2013-08-01 20:47:00,
2013-08-02 06:52:00,45.2,45.2,29.94,West,270,0.0,0.0,100,0.00,,,0.00,WSDL version 420,2013-08-01 20:52:00,
2013-08-02 07:03:00,45.1,45.1,29.94,West,270,0.0,0.0,100,0.00,,,0.00,WSDL version 420,2013-08-01 21:03:00,
2013-08-02 07:08:00,44.9,44.9,29.94,WNW,293,0.0,0.0,100,0.00,,,0.00,WSDL version 420,2013-08-01 21:08:00,
2013-08-02 07:13:00,46.6,46.6,29.94,WNW,293,0.0,0.0,100,0.00,,,0.00,WSDL version 420,2013-08-01 21:13:00,
2013-08-02 07:18:00,46.5,46.5,29.94,WNW,293,0.0,0.0,100,0.00,,,0.00,WSDL version 420,2013-08-01 21:18:00,
2013-08-02 07:23:00,47.1,47.1,29.94,WNW,293,0.0,0.0,100,0.00,,,0.00,WSDL version 420,2013-08-01 21:23:00,
2013-08-02 07:28:00,48.7,48.7,29.94,NW,315,0.0,0.0,100,0.00,,,0.00,WSDL version 420,2013-08-01 21:28:00,
2013-08-02 07:33:00,49.4,49.4,29.97,NW,315,0.0,0.0,100,0.00,,,0.00,WSDL version 420,2013-08-01 21:33:00,
2013-08-02 07:38:00,49.8,49.8,29.97,NW,315,0.0,0.0,100,0.00,,,0.00,WSDL version 420,2013-08-01 21:38:00,
2013-08-02 07:43:00,50.2,50.2,29.97,NW,315,0.0,0.0,100,0.00,,,0.00,WSDL version 420,2013-08-01 21:43:00,
2013-08-02 07:48:00,50.6,50.6,29.97,NW,315,0.0,0.0,100,0.00,,,0.00,WSDL version 420,2013-08-01 21:48:00,
2013-08-02 07:53:00,50.6,50.6,29.97,NNW,338,0.0,0.0,100,0.00,,,0.00,WSDL version 420,2013-08-01 21:53:00,
2013-08-02 07:58:00,50.7,50.7,29.97,NNW,347,0.2,1.3,100,0.00,,,0.00,WSDL version 420,2013-08-01 21:58:00,
2013-08-02 08:05:00,51.1,51.1,29.97,NNW,338,0.4,1.3,100,0.00,,,0.00,WSDL version 420,2013-08-01 22:05:00,
2013-08-02 08:10:00,51.6,51.6,29.97,NNE,23,0.0,1.3,100,0.00,,,0.00,WSDL version 420,2013-08-01 22:10:00,
2013-08-02 08:17:00,51.6,51.6,29.97,NNE,23,0.0,0.0,100,0.00,,,0.00,WSDL version 420,2013-08-01 22:17:00,
2013-08-02 08:22:00,51.9,51.9,29.97,North,8,0.0,0.0,100,0.00,,,0.00,WSDL version 420,2013-08-01 22:22:00,
2013-08-02 08:29:00,52.7,52.7,29.97,NNE,23,0.0,0.0,100,0.00,,,0.00,WSDL version 420,2013-08-01 22:29:00,
2013-08-02 08:34:00,53.4,53.4,29.97,NNE,15,0.0,0.0,100,0.00,,,0.00,WSDL version 420,2013-08-01 22:34:00,
2013-08-02 08:39:00,54.3,54.3,29.97,WSW,251,0.0,2.2,100,0.00,,,0.00,WSDL version 420,2013-08-01 22:39:00,
2013-08-02 08:45:00,54.9,54.9,29.97,West,266,1.6,5.6,100,0.00,,,0.00,WSDL version 420,2013-08-01 22:45:00,
2013-08-02 08:50:00,55.5,55.5,29.97,West,273,0.4,4.3,100,0.00,,,0.00,WSDL version 420,2013-08-01 22:50:00,
2013-08-02 08:57:00,55.7,55.7,29.97,NW,308,1.6,3.6,100,0.00,,,0.00,WSDL version 420,2013-08-01 22:57:00,
2013-08-02 09:02:00,56.6,56.6,29.97,West,260,0.3,3.6,100,0.00,,,0.00,WSDL version 420,2013-08-01 23:02:00,
2013-08-02 09:07:00,57.4,57.4,29.97,WNW,289,2.3,4.0,100,0.00,,,0.00,WSDL version 420,2013-08-01 23:07:00,
2013-08-02 09:12:00,58.8,58.8,29.97,WNW,299,0.9,4.0,100,0.00,,,0.00,WSDL version 420,2013-08-01 23:12:00,
2013-08-02 09:17:00,60.0,60.0,29.97,WNW,283,3.0,3.8,100,0.00,,,0.00,WSDL version 420,2013-08-01 23:17:00,
2013-08-02 09:22:00,60.3,60.3,29.97,West,270,3.4,7.2,100,0.00,,,0.00,WSDL version 420,2013-08-01 23:22:00,
2013-08-02 09:27:00,60.5,59.3,29.97,West,275,3.7,7.2,94,0.00,,,0.00,WSDL version 420,2013-08-01 23:27:00,
2013-08-02 09:32:00,60.8,58.4,29.97,SW,222,2.5,5.6,92,0.00,,,0.00,WSDL version 420,2013-08-01 23:32:00,
2013-08-02 09:39:00,62.0,58.5,29.97,NW,325,3.0,4.3,86,0.00,,,0.00,WSDL version 420,2013-08-01 23:39:00,
2013-08-02 09:48:00,63.1,57.3,29.97,NNW,334,2.4,4.9,81,0.00,,,0.00,WSDL version 420,2013-08-01 23:48:00,
2013-08-02 09:53:00,64.1,57.6,29.97,NNW,332,3.2,4.7,78,0.00,,,0.00,WSDL version 420,2013-08-01 23:53:00,
2013-08-02 09:58:00,64.4,57.3,29.97,NW,304,2.2,4.7,78,0.00,,,0.00,WSDL version 420,2013-08-01 23:58:00,
2013-08-02 10:05:00,63.8,55.3,29.97,North,350,3.6,5.8,75,0.00,,,0.00,WSDL version 420,2013-08-02 00:05:00,
2013-08-02 10:10:00,64.2,56.2,29.97,NW,321,3.5,5.8,73,0.00,,,0.00,WSDL version 420,2013-08-02 00:10:00,
2013-08-02 10:17:00,63.7,54.5,29.94,NNW,347,3.4,6.0,72,0.00,,,0.00,WSDL version 420,2013-08-02 00:17:00,
2013-08-02 10:22:00,62.9,53.4,29.94,WNW,286,4.0,6.5,71,0.00,,,0.00,WSDL version 420,2013-08-02 00:22:00,
2013-08-02 10:28:00,-999.0,-99.9,29.94,NW,326,2.5,6.5,-999,0.00,,,0.00,WSDL version 420,2013-08-02 00:28:00,
2013-08-02 10:37:00,63.1,52.5,29.94,NNW,333,3.5,7.2,68,0.00,,,0.00,WSDL version 420,2013-08-02 00:37:00,
2013-08-02 10:42:00,64.1,53.3,29.94,NW,321,3.0,7.2,67,0.00,,,0.00,WSDL version 420,2013-08-02 00:42:00,
2013-08-02 10:47:00,65.2,53.0,29.94,NW,305,3.1,6.3,63,0.00,,,0.00,WSDL version 420,2013-08-02 00:47:00,
2013-08-02 10:52:00,-999.0,-99.9,29.94,West,274,4.5,6.5,-999,0.00,,,0.00,WSDL version 420,2013-08-02 00:52:00,
2013-08-02 11:01:00,66.8,51.6,29.91,NNW,338,4.3,7.8,58,0.00,,,0.00,WSDL version 420,2013-08-02 01:01:00,
2013-08-02 11:06:00,67.5,52.7,29.91,NW,318,2.8,7.6,59,0.00,,,0.00,WSDL version 420,2013-08-02 01:06:00,
2013-08-02 11:11:00,68.3,52.6,29.91,NNW,330,2.8,5.8,57,-99.99,,,-99.99,WSDL version 420,2013-08-02 01:11:00,
2013-08-02 11:16:00,69.3,53.3,29.91,NNW,333,2.2,4.7,56,0.00,,,0.00,WSDL version 420,2013-08-02 01:16:00,
2013-08-02 11:21:00,69.5,52.5,29.91,West,281,2.9,4.7,54,0.00,,,0.00,WSDL version 420,2013-08-02 01:21:00,
2013-08-02 11:26:00,69.5,50.9,29.91,WNW,289,3.0,7.4,51,0.00,,,0.00,WSDL version 420,2013-08-02 01:26:00,
2013-08-02 11:31:00,69.5,50.5,29.91,West,264,2.3,7.4,50,0.00,,,0.00,WSDL version 420,2013-08-02 01:31:00,
2013-08-02 11:36:00,69.6,50.3,29.91,WSW,248,4.0,7.4,50,0.00,,,0.00,WSDL version 420,2013-08-02 01:36:00,
2013-08-02 11:41:00,69.7,50.5,29.91,North,353,4.1,6.3,50,0.00,,,0.00,WSDL version 420,2013-08-02 01:41:00,
2013-08-02 11:46:00,69.7,49.9,29.91,WNW,289,4.4,7.4,49,0.00,,,0.00,WSDL version 420,2013-08-02 01:46:00,
2013-08-02 11:51:00,69.9,49.7,29.91,West,278,3.7,7.6,48,0.00,,,0.00,WSDL version 420,2013-08-02 01:51:00,
2013-08-02 11:56:00,70.6,50.5,29.91,WNW,302,2.7,7.6,49,0.00,,,0.00,WSDL version 420,2013-08-02 01:56:00,
2013-08-02 12:01:00,70.8,49.6,29.91,West,273,3.5,6.5,47,0.00,,,0.00,WSDL version 420,2013-08-02 02:01:00,
2013-08-02 12:06:00,70.8,49.0,29.88,West,280,5.0,7.4,46,0.00,,,0.00,WSDL version 420,2013-08-02 02:06:00,
2013-08-02 12:11:00,71.1,49.8,29.88,WNW,296,2.9,7.4,47,0.00,,,0.00,WSDL version 420,2013-08-02 02:11:00,
2013-08-02 12:16:00,71.6,49.0,29.88,WNW,295,4.0,8.5,44,0.00,,,0.00,WSDL version 420,2013-08-02 02:16:00,
2013-08-02 12:21:00,71.4,48.5,29.88,NW,312,4.3,8.5,44,0.00,,,0.00,WSDL version 420,2013-08-02 02:21:00,
2013-08-02 12:26:00,71.3,48.6,29.88,NNW,331,2.9,7.8,45,0.00,,,0.00,WSDL version 420,2013-08-02 02:26:00,
2013-08-02 12:35:00,72.1,47.9,29.85,West,273,3.2,7.2,43,0.00,,,0.00,WSDL version 420,2013-08-02 02:35:00,
2013-08-02 12:41:00,72.9,48.9,29.85,WNW,298,3.0,6.5,42,0.00,,,0.00,WSDL version 420,2013-08-02 02:41:00,
2013-08-02 12:46:00,72.8,48.4,29.83,WNW,285,3.5,7.6,42,0.00,,,0.00,WSDL version 420,2013-08-02 02:46:00,
2013-08-02 12:51:00,73.5,49.4,29.83,WSW,256,3.5,7.6,42,0.00,,,0.00,WSDL version 420,2013-08-02 02:51:00,
2013-08-02 13:00:00,73.5,48.4,29.83,NNW,338,3.5,8.5,41,0.00,,,0.00,WSDL version 420,2013-08-02 03:00:00,
2013-08-02 13:05:00,73.8,48.9,29.85,West,267,3.6,6.5,41,0.00,,,0.00,WSDL version 420,2013-08-02 03:05:00,
2013-08-02 13:12:00,73.4,46.5,29.85,WNW,301,3.9,7.2,39,0.00,,,0.00,WSDL version 420,2013-08-02 03:12:00,
2013-08-02 13:17:00,73.4,46.5,29.85,NW,305,4.1,7.6,38,0.00,,,0.00,WSDL version 420,2013-08-02 03:17:00,
2013-08-02 13:22:00,73.5,46.4,29.85,WSW,257,4.3,7.8,38,0.00,,,0.00,WSDL version 420,2013-08-02 03:22:00,
2013-08-02 13:27:00,73.1,45.6,29.85,NW,309,4.9,12.8,38,0.00,,,0.00,WSDL version 420,2013-08-02 03:27:00,
2013-08-02 13:34:00,-999.0,-99.9,29.85,WSW,244,4.6,7.8,-999,0.00,,,0.00,WSDL version 420,2013-08-02 03:34:00,
2013-08-02 13:43:00,73.3,44.6,29.85,WSW,245,5.6,8.7,36,0.00,,,0.00,WSDL version 420,2013-08-02 03:43:00,
2013-08-02 13:48:00,73.7,44.6,29.83,SE,143,5.0,7.8,34,0.00,,,0.00,WSDL version 420,2013-08-02 03:48:00,
2013-08-02 13:53:00,74.3,44.9,29.83,WNW,296,3.8,7.8,35,0.00,,,0.00,WSDL version 420,2013-08-02 03:53:00,
2013-08-02 13:57:00,74.5,45.1,29.83,WNW,296,4.9,7.6,35,0.00,,,0.00,WSDL version 420,2013-08-02 03:57:00,
2013-08-02 14:03:00,74.7,45.3,29.85,WNW,283,2.5,7.6,35,0.00,,,0.00,WSDL version 420,2013-08-02 04:03:00,
2013-08-02 14:08:00,74.2,44.0,29.85,WNW,293,6.5,12.8,34,0.00,,,0.00,WSDL version 420,2013-08-02 04:08:00,
2013-08-02 14:12:00,74.1,44.4,29.85,WNW,300,3.7,12.8,35,0.00,,,0.00,WSDL version 420,2013-08-02 04:12:00,
2013-08-02 14:18:00,74.2,44.0,29.83,NW,315,4.6,10.7,34,0.00,,,0.00,WSDL version 420,2013-08-02 04:18:00,
2013-08-02 14:23:00,74.3,44.8,29.83,WNW,299,4.1,9.4,34,0.00,,,0.00,WSDL version 420,2013-08-02 04:23:00,
2013-08-02 14:28:00,74.7,44.5,29.83,WNW,293,3.8,9.4,34,0.00,,,0.00,WSDL version 420,2013-08-02 04:28:00,
2013-08-02 14:33:00,74.4,44.1,29.83,West,259,5.3,12.3,34,0.00,,,0.00,WSDL version 420,2013-08-02 04:33:00,
2013-08-02 14:38:00,74.2,43.8,29.83,NNW,332,4.8,12.3,33,0.00,,,0.00,WSDL version 420,2013-08-02 04:38:00,
2013-08-02 14:43:00,74.4,43.6,29.83,NW,323,5.4,10.3,33,0.00,,,0.00,WSDL version 420,2013-08-02 04:43:00,
2013-08-02 14:48:00,74.0,43.3,29.83,West,280,3.7,10.3,33,0.00,,,0.00,WSDL version 420,2013-08-02 04:48:00,
2013-08-02 14:52:00,74.2,43.3,29.83,West,278,5.3,10.3,33,0.00,,,0.00,WSDL version 420,2013-08-02 04:52:00,
2013-08-02 14:57:00,73.3,43.3,29.83,WNW,283,3.7,10.1,34,0.00,,,0.00,WSDL version 420,2013-08-02 04:57:00,
2013-08-02 15:03:00,73.4,43.4,29.83,NW,320,5.1,13.4,34,0.00,,,0.00,WSDL version 420,2013-08-02 05:03:00,
2013-08-02 15:08:00,74.4,44.3,29.83,West,264,3.8,13.4,34,0.00,,,0.00,WSDL version 420,2013-08-02 05:08:00,
2013-08-02 15:13:00,74.8,43.6,29.83,WNW,286,5.4,7.6,32,0.00,,,0.00,WSDL version 420,2013-08-02 05:13:00,
2013-08-02 15:18:00,74.2,42.2,29.83,West,266,5.6,9.2,31,0.00,,,0.00,WSDL version 420,2013-08-02 05:18:00,
2013-08-02 15:23:00,74.2,42.2,29.83,West,278,4.2,9.2,31,0.00,,,0.00,WSDL version 420,2013-08-02 05:23:00,
2013-08-02 15:28:00,74.2,41.7,29.83,WNW,299,5.7,8.5,31,0.00,,,0.00,WSDL version 420,2013-08-02 05:28:00,
2013-08-02 15:33:00,73.5,41.0,29.83,WSW,253,6.7,13.2,31,0.00,,,0.00,WSDL version 420,2013-08-02 05:33:00,
2013-08-02 15:38:00,73.5,41.0,29.83,West,270,4.7,13.2,31,0.00,,,0.00,WSDL version 420,2013-08-02 05:38:00,
2013-08-02 15:43:00,73.4,41.0,29.83,WNW,293,3.9,10.1,31,0.00,,,0.00,WSDL version 420,2013-08-02 05:43:00,
2013-08-02 15:48:00,73.3,40.9,29.85,WNW,293,4.9,13.2,31,0.00,,,0.00,WSDL version 420,2013-08-02 05:48:00,
2013-08-02 15:53:00,-999.0,-99.9,29.85,West,261,6.5,13.2,-999,0.00,,,0.00,WSDL version 420,2013-08-02 05:53:00,
2013-08-02 15:58:00,72.7,40.3,29.85,WNW,289,4.6,9.4,31,0.00,,,0.00,WSDL version 420,2013-08-02 05:58:00,
2013-08-02 16:03:00,72.4,40.1,29.83,West,273,4.4,9.4,31,0.00,,,0.00,WSDL version 420,2013-08-02 06:03:00,
2013-08-02 16:08:00,72.2,40.5,29.83,West,267,2.6,7.4,32,0.00,,,0.00,WSDL version 420,2013-08-02 06:08:00,
2013-08-02 16:13:00,72.0,40.3,29.83,WNW,296,3.8,7.6,31,0.00,,,0.00,WSDL version 420,2013-08-02 06:13:00,
2013-08-02 16:18:00,70.9,39.6,29.83,West,267,4.1,7.6,32,0.00,,,0.00,WSDL version 420,2013-08-02 06:18:00,
2013-08-02 16:23:00,70.6,39.3,29.83,West,270,3.1,7.6,32,0.00,,,0.00,WSDL version 420,2013-08-02 06:23:00,
2013-08-02 16:28:00,70.7,39.4,29.83,West,266,2.5,8.7,32,0.00,,,0.00,WSDL version 420,2013-08-02 06:28:00,
2013-08-02 16:33:00,70.1,38.9,29.83,West,264,4.0,8.7,32,0.00,,,0.00,WSDL version 420,2013-08-02 06:33:00,
2013-08-02 16:38:00,69.7,38.9,29.83,WNW,289,2.2,7.4,33,0.00,,,0.00,WSDL version 420,2013-08-02 06:38:00,
2013-08-02 16:42:00,68.9,38.7,29.83,South,185,0.7,6.0,33,0.00,,,0.00,WSDL version 420,2013-08-02 06:42:00,
2013-08-02 16:48:00,68.6,39.1,29.83,South,188,0.0,6.0,35,0.00,,,0.00,WSDL version 420,2013-08-02 06:48:00,
2013-08-02 16:53:00,67.7,39.3,29.83,South,177,1.3,3.6,36,0.00,,,0.00,WSDL version 420,2013-08-02 06:53:00,
2013-08-02 16:58:00,66.7,39.4,29.83,SSW,206,0.0,2.7,37,0.00,,,0.00,WSDL version 420,2013-08-02 06:58:00,
2013-08-02 17:03:00,65.4,39.7,29.83,South,183,1.3,2.2,40,0.00,,,0.00,WSDL version 420,2013-08-02 07:03:00,
2013-08-02 17:08:00,64.0,40.5,29.83,SE,141,0.6,2.2,43,0.00,,,0.00,WSDL version 420,2013-08-02 07:08:00,
2013-08-02 17:13:00,63.0,40.8,29.83,South,173,1.9,2.9,45,0.00,,,0.00,WSDL version 420,2013-08-02 07:13:00,
2013-08-02 17:18:00,62.2,40.9,29.85,SE,146,1.2,2.9,46,0.00,,,0.00,WSDL version 420,2013-08-02 07:18:00,
2013-08-02 17:22:00,61.3,40.6,29.85,SSE,151,0.0,2.0,47,0.00,,,0.00,WSDL version 420,2013-08-02 07:22:00,
2013-08-02 17:28:00,60.7,40.7,29.85,SE,131,0.5,2.0,48,0.00,,,0.00,WSDL version 420,2013-08-02 07:28:00,
2013-08-02 17:33:00,59.9,40.7,29.85,WSW,241,0.2,2.2,50,0.00,,,0.00,WSDL version 420,2013-08-02 07:33:00,
2013-08-02 17:38:00,59.4,41.0,29.85,SSW,206,0.0,2.2,50,0.00,,,0.00,WSDL version 420,2013-08-02 07:38:00,
2013-08-02 17:43:00,58.6,40.8,29.85,SE,135,0.0,1.1,52,0.00,,,0.00,WSDL version 420,2013-08-02 07:43:00,
2013-08-02 17:47:00,58.1,40.7,29.83,SSE,158,0.0,1.1,53,0.00,,,0.00,WSDL version 420,2013-08-02 07:47:00,
2013-08-02 17:52:00,57.6,41.5,29.83,SSE,158,0.0,0.0,55,0.00,,,0.00,WSDL version 420,2013-08-02 07:52:00,
2013-08-02 17:58:00,57.0,41.7,29.83,SSE,158,0.0,0.0,57,0.00,,,0.00,WSDL version 420,2013-08-02 07:58:00,
2013-08-02 18:03:00,56.5,41.6,29.85,SE,145,0.0,0.0,59,0.00,,,0.00,WSDL version 420,2013-08-02 08:03:00,
2013-08-02 18:08:00,56.1,42.0,29.85,West,273,0.0,0.0,60,0.00,,,0.00,WSDL version 420,2013-08-02 08:08:00,
2013-08-02 18:13:00,55.7,41.9,29.85,SSW,210,0.0,0.0,60,0.00,,,0.00,WSDL version 420,2013-08-02 08:13:00,
2013-08-02 18:18:00,55.3,42.1,29.85,West,270,0.0,0.0,61,0.00,,,0.00,WSDL version 420,2013-08-02 08:18:00,
2013-08-02 18:23:00,54.8,42.2,29.85,WNW,293,0.0,0.0,62,0.00,,,0.00,WSDL version 420,2013-08-02 08:23:00,
2013-08-02 18:27:00,54.5,42.8,29.85,SE,132,0.0,0.0,65,0.00,,,0.00,WSDL version 420,2013-08-02 08:27:00,
2013-08-02 18:32:00,54.1,42.5,29.83,SW,214,0.0,0.0,65,0.00,,,0.00,WSDL version 420,2013-08-02 08:32:00,
2013-08-02 18:38:00,53.8,42.9,29.83,WSW,248,0.0,0.0,67,0.00,,,0.00,WSDL version 420,2013-08-02 08:38:00,
2013-08-02 18:43:00,53.5,43.0,29.83,West,270,0.0,0.0,68,0.00,,,0.00,WSDL version 420,2013-08-02 08:43:00,
2013-08-02 18:48:00,53.0,42.8,29.85,West,270,0.0,0.0,69,0.00,,,0.00,WSDL version 420,2013-08-02 08:48:00,
2013-08-02 18:52:00,52.7,43.0,29.85,West,270,0.0,0.0,70,0.00,,,0.00,WSDL version 420,2013-08-02 08:52:00,
2013-08-02 18:57:00,52.3,43.0,29.85,SSW,210,0.0,0.0,70,0.00,,,0.00,WSDL version 420,2013-08-02 08:57:00,
2013-08-02 19:03:00,52.0,42.5,29.85,WSW,248,0.0,0.0,69,0.00,,,0.00,WSDL version 420,2013-08-02 09:03:00,
2013-08-02 19:08:00,51.9,42.8,29.85,NW,306,1.2,2.7,72,0.00,,,0.00,WSDL version 420,2013-08-02 09:08:00,
2013-08-02 19:13:00,52.0,44.1,29.85,SE,145,0.0,2.7,75,0.00,,,0.00,WSDL version 420,2013-08-02 09:13:00,
2013-08-02 19:18:00,51.8,43.8,29.85,SW,225,0.0,1.6,74,0.00,,,0.00,WSDL version 420,2013-08-02 09:18:00,
2013-08-02 19:23:00,51.5,43.8,29.85,SW,225,0.0,0.0,75,0.00,,,0.00,WSDL version 420,2013-08-02 09:23:00,
2013-08-02 19:28:00,51.3,43.6,29.85,NNW,333,0.0,0.0,75,0.00,,,0.00,WSDL version 420,2013-08-02 09:28:00,
2013-08-02 19:32:00,51.0,43.4,29.85,ESE,113,0.0,0.0,75,0.00,,,0.00,WSDL version 420,2013-08-02 09:32:00,
2013-08-02 19:38:00,50.9,43.4,29.85,West,270,0.2,2.5,76,0.00,,,0.00,WSDL version 420,2013-08-02 09:38:00,
2013-08-02 19:43:00,50.7,43.6,29.85,SSE,148,0.0,2.5,77,0.00,,,0.00,WSDL version 420,2013-08-02 09:43:00,
2013-08-02 19:48:00,50.4,43.4,29.85,SW,225,0.0,0.0,77,0.00,,,0.00,WSDL version 420,2013-08-02 09:48:00,
2013-08-02 19:53:00,50.1,43.5,29.85,SW,225,0.0,0.0,78,0.00,,,0.00,WSDL version 420,2013-08-02 09:53:00,
2013-08-02 19:58:00,49.9,43.6,29.85,SW,225,0.0,0.0,80,0.00,,,0.00,WSDL version 420,2013-08-02 09:58:00,
2013-08-02 20:03:00,-999.0,-99.9,29.85,SW,225,0.0,0.0,-999,0.00,,,0.00,WSDL version 420,2013-08-02 10:03:00,
2013-08-02 20:08:00,49.4,43.9,29.85,SW,225,0.0,0.0,81,0.00,,,0.00,WSDL version 420,2013-08-02 10:08:00,
2013-08-02 20:13:00,49.2,44.0,29.85,SW,219,0.0,0.0,82,0.00,,,0.00,WSDL version 420,2013-08-02 10:13:00,
2013-08-02 20:17:00,49.1,43.9,29.85,SW,225,0.0,0.0,82,0.00,,,0.00,WSDL version 420,2013-08-02 10:17:00,
2013-08-02 20:23:00,48.9,44.1,29.85,SW,225,0.0,0.0,83,0.00,,,0.00,WSDL version 420,2013-08-02 10:23:00,
2013-08-02 20:27:00,48.7,44.2,29.85,SW,225,0.0,0.0,84,0.00,,,0.00,WSDL version 420,2013-08-02 10:27:00,
2013-08-02 20:32:00,48.5,44.0,29.85,SW,225,0.0,0.0,84,0.00,,,0.00,WSDL version 420,2013-08-02 10:32:00,
2013-08-02 20:43:00,48.6,44.4,29.85,WNW,289,0.0,0.0,86,0.00,,,0.00,WSDL version 420,2013-08-02 10:43:00,
2013-08-02 20:47:00,48.5,44.6,29.83,NW,315,0.0,0.0,87,0.00,,,0.00,WSDL version 420,2013-08-02 10:47:00,
2013-08-02 20:53:00,48.3,44.5,29.83,SW,222,0.0,0.0,87,0.00,,,0.00,WSDL version 420,2013-08-02 10:53:00,
2013-08-02 20:58:00,48.2,44.7,29.83,WSW,248,0.0,0.0,88,0.00,,,0.00,WSDL version 420,2013-08-02 10:58:00,
2013-08-02 21:03:00,48.1,45.2,29.83,WNW,293,0.0,0.0,90,-99.99,,,-99.99,WSDL version 420,2013-08-02 11:03:00,
2013-08-02 21:13:00,47.9,45.5,29.83,SW,225,0.0,0.0,91,0.00,,,0.00,WSDL version 420,2013-08-02 11:13:00,
2013-08-02 21:18:00,47.8,45.8,29.85,SW,225,0.0,0.0,93,0.00,,,0.00,WSDL version 420,2013-08-02 11:18:00,
2013-08-02 21:23:00,47.9,46.2,29.85,SSW,206,0.0,0.0,94,-99.99,,,-99.99,WSDL version 420,2013-08-02 11:23:00,
2013-08-02 21:27:00,48.1,46.5,29.85,SW,225,0.0,0.0,94,0.00,,,0.00,WSDL version 420,2013-08-02 11:27:00,
2013-08-02 21:33:00,48.0,46.5,29.83,West,270,0.0,0.0,94,0.00,,,0.00,WSDL version 420,2013-08-02 11:33:00,
2013-08-02 21:38:00,48.0,46.5,29.83,NW,315,0.0,0.0,94,0.00,,,0.00,WSDL version 420,2013-08-02 11:38:00,
2013-08-02 21:42:00,47.9,46.4,29.83,West,276,0.0,0.0,94,0.00,,,0.00,WSDL version 420,2013-08-02 11:42:00,
2013-08-02 21:48:00,47.7,46.1,29.83,South,174,0.0,1.3,94,0.00,,,0.00,WSDL version 420,2013-08-02 11:48:00,
2013-08-02 21:53:00,48.0,46.4,29.83,South,188,0.6,2.0,94,0.00,,,0.00,WSDL version 420,2013-08-02 11:53:00,
2013-08-02 21:58:00,48.3,47.1,29.83,SW,231,0.0,2.0,96,0.00,,,0.00,WSDL version 420,2013-08-02 11:58:00,
2013-08-02 22:02:00,48.5,47.3,29.83,West,267,0.1,2.9,96,0.00,,,0.00,WSDL version 420,2013-08-02 12:02:00,
2013-08-02 22:08:00,48.7,47.5,29.83,South,176,0.0,2.9,94,0.00,,,0.00,WSDL version 420,2013-08-02 12:08:00,
2013-08-02 22:13:00,48.6,47.1,29.83,SW,230,0.0,1.3,94,0.00,,,0.00,WSDL version 420,2013-08-02 12:13:00,
2013-08-02 22:18:00,48.4,46.9,29.85,East,90,0.0,1.3,94,-99.99,,,-99.99,WSDL version 420,2013-08-02 12:18:00,
2013-08-02 22:22:00,48.4,46.9,29.85,ESE,113,0.6,1.3,94,0.00,,,0.00,WSDL version 420,2013-08-02 12:22:00,
2013-08-02 22:28:00,48.6,47.3,29.85,NE,51,1.2,2.7,96,0.00,,,0.00,WSDL version 420,2013-08-02 12:28:00,
2013-08-02 22:32:00,48.8,47.3,29.85,SE,146,1.3,2.7,94,0.00,,,0.00,WSDL version 420,2013-08-02 12:32:00,
2013-08-02 22:38:00,48.9,47.4,29.85,ESE,116,0.4,2.5,94,0.00,,,0.00,WSDL version 420,2013-08-02 12:38:00,
2013-08-02 22:43:00,49.1,47.1,29.85,ESE,119,2.2,2.9,92,0.00,,,0.00,WSDL version 420,2013-08-02 12:43:00,
2013-08-02 22:48:00,49.5,47.0,29.85,SSE,149,1.8,3.4,91,0.00,,,0.00,WSDL version 420,2013-08-02 12:48:00,
2013-08-02 22:53:00,49.7,46.7,29.85,SSW,206,1.2,3.4,89,0.00,,,0.00,WSDL version 420,2013-08-02 12:53:00,
2013-08-02 22:58:00,49.8,46.2,29.85,SE,138,0.0,2.7,87,0.00,,,0.00,WSDL version 420,2013-08-02 12:58:00,
2013-08-02 23:03:00,49.5,45.7,29.85,SE,135,0.0,2.7,87,0.00,,,0.00,WSDL version 420,2013-08-02 13:03:00,
2013-08-02 23:08:00,49.1,45.2,29.85,SE,132,0.0,0.0,87,0.00,,,0.00,WSDL version 420,2013-08-02 13:08:00,
2013-08-02 23:13:00,48.7,44.9,29.85,SE,135,0.0,1.1,87,0.00,,,0.00,WSDL version 420,2013-08-02 13:13:00,